WetterOnline ( https://www.wetteronline.de )

Wetter aktuell Kabelsketal

Aktuelles Wetter: Leipzig/Halle (136m)

6-stündlich | Neueste Meldungen
Ortszeit Temperatur Wetter
So, 25.10. 7:00 8.7° C leicht bewölkt
So, 25.10. 2:00 10.0° C wolkenlos
Sa, 24.10. 20:00 13.4° C fast wolkenlos
Sa, 24.10. 14:00 16.4° C wolkig
Sa, 24.10. 8:00 10.7° C leicht bewölkt
Sa, 24.10. 2:00 12.0° C leicht bewölkt
Fr, 23.10. 20:00 15.1° C bedeckt
Fr, 23.10. 14:00 17.2° C bewölkt
Ortszeit Temperatur Wetter
So, 25.10. 12:00 15.8° C leicht bewölkt
So, 25.10. 11:50 15.8° C leicht bewölkt
So, 25.10. 11:40 15.4° C leicht bewölkt
So, 25.10. 11:30 15.0° C wolkenlos
So, 25.10. 11:20 15.0° C wolkenlos
So, 25.10. 11:10 14.6° C leicht bewölkt
So, 25.10. 11:00 14.3° C leicht bewölkt
So, 25.10. 10:30 13.4° C wolkig
So, 25.10. 10:00 12.1° C wolkig
So, 25.10. 9:30 11.5° C bedeckt
So, 25.10. 9:00 11.1° C leicht bewölkt
Ortszeit Relative Feuchte Sichtweite
So, 25.10. 7:00 91% 55 km
So, 25.10. 2:00 89% 55 km
Sa, 24.10. 20:00 75% 65 km
Sa, 24.10. 14:00 65% 60 km
Sa, 24.10. 8:00 96% 20 km
Sa, 24.10. 2:00 96% 20 km
Fr, 23.10. 20:00 87% 45 km
Fr, 23.10. 14:00 78% 50 km
Ortszeit Relative Feuchte Sichtweite
So, 25.10. 12:00 67% 60 km
So, 25.10. 11:50 67% -
So, 25.10. 11:40 67% -
So, 25.10. 11:30 68% 45 km
So, 25.10. 11:20 68% -
So, 25.10. 11:10 69% -
So, 25.10. 11:00 70% 60 km
So, 25.10. 10:30 75% 45 km
So, 25.10. 10:00 79% 60 km
So, 25.10. 9:30 82% 27 km
So, 25.10. 9:00 81% 60 km
Ortszeit Niederschlagsmenge Niederschlagsart
So, 25.10. 7:00 0.0 l/m2 in 12 Std. -
So, 25.10. 2:00 0.0 l/m2 in 6 Std. -
Sa, 24.10. 20:00 0.0 l/m2 in 12 Std. -
Sa, 24.10. 14:00 0.0 l/m2 in 6 Std. -
Sa, 24.10. 8:00 0.1 l/m2 in 12 Std. -
Sa, 24.10. 2:00 0.1 l/m2 in 6 Std. Regen
Fr, 23.10. 20:00 0.1 l/m2 in 12 Std. Regen
Fr, 23.10. 14:00 0.1 l/m2 in 6 Std. Regen
Ortszeit Niederschlagsmenge Niederschlagsart
So, 25.10. 12:00 0.0 l/m2 in 1 Std. -
So, 25.10. 11:50 keine Meldung -
So, 25.10. 11:40 keine Meldung -
So, 25.10. 11:30 0.0 l/m2 in 1 Std. -
So, 25.10. 11:20 keine Meldung -
So, 25.10. 11:10 keine Meldung -
So, 25.10. 11:00 0.0 l/m2 in 1 Std. -
So, 25.10. 10:30 0.0 l/m2 in 1 Std. -
So, 25.10. 10:00 0.0 l/m2 in 1 Std. -
So, 25.10. 9:30 0.0 l/m2 in 1 Std. -
So, 25.10. 9:00 0.0 l/m2 in 1 Std. -
Ortszeit Stärke Spitze Richtung
km/h Bft. km/h Grad Sektor
So, 25.10. 7:00 15 3 28 170° S
So, 25.10. 2:00 20 4 35 170° S
Sa, 24.10. 20:00 20 4 41 220° SW
Sa, 24.10. 14:00 26 4 46 240° SW
Sa, 24.10. 8:00 13 3 22 220° SW
Sa, 24.10. 2:00 17 3 24 250° W
Fr, 23.10. 20:00 20 4 35 240° SW
Fr, 23.10. 14:00 17 3 22 200° S
Ortszeit Stärke Spitze Richtung
km/h Bft. km/h Grad Sektor
So, 25.10. 12:00 18 3 32 180° S
So, 25.10. 11:50 18 3 - 180° S
So, 25.10. 11:40 20 4 - 190° S
So, 25.10. 11:30 18 3 32 200° S
So, 25.10. 11:20 18 3 - 200° S
So, 25.10. 11:10 22 4 - 210° SW
So, 25.10. 11:00 25 4 32 220° SW
So, 25.10. 10:30 18 3 29 190° S
So, 25.10. 10:00 17 3 33 200° S
So, 25.10. 9:30 24 4 33 180° S
So, 25.10. 9:00 24 4 33 180° S
Ortszeit Untergrenze Bedeckung Gattung
total tief tief mittel hoch
So, 25.10. 7:00 4500 m 6/8 1/8 - Ac Cs
So, 25.10. 2:00 - 0/8 0/8 - - -
Sa, 24.10. 20:00 2400 m 1/8 1/8 - Ac -
Sa, 24.10. 14:00 900 m 5/8 5/8 Cu - -
Sa, 24.10. 8:00 1800 m 3/8 3/8 Sc - -
Sa, 24.10. 2:00 3300 m 5/8 2/8 - Ac Ci
Fr, 23.10. 20:00 780 m 8/8 7/8 Sc - -
Fr, 23.10. 14:00 960 m 7/8 7/8 Cu - -
Ortszeit Bedeckungsgrad in Achtel und Wolkenuntergrenze
So, 25.10. 12:00 5(6900m)
So, 25.10. 11:50 2(7200m) 3(9000m)
So, 25.10. 11:40 1(7200m) 3(9000m)
So, 25.10. 11:30 keine Wolken
So, 25.10. 11:20 keine Wolken
So, 25.10. 11:10 1(6900m) 2(9000m)
So, 25.10. 11:00 1(3900m) 6(6900m)
So, 25.10. 10:30 5(6900m) 6(9000m)
So, 25.10. 10:00 3(3900m) 5(6900m)
So, 25.10. 9:30 8(6900m)
So, 25.10. 9:00 2(3900m) 5(6900m)
Ortszeit Luftdruck NN (hPa) Tendenz (hPa in 3 Std.)
So, 25.10. 7:00 1011 - 0,5
So, 25.10. 2:00 1013 - 1,2
Sa, 24.10. 20:00 1014 + 0,1
Sa, 24.10. 14:00 1015 - 0,4
Sa, 24.10. 8:00 1014 + 0,7
Sa, 24.10. 2:00 1012 + 0,6
Fr, 23.10. 20:00 1011 + 0,4
Fr, 23.10. 14:00 1011 - 1,3
Ortszeit Luftdruck NN (hPa) Tendenz (hPa in 3 Std.)
So, 25.10. 12:00 1008 - 1,4
So, 25.10. 11:50 1008 keine Meldung
So, 25.10. 11:40 1009 keine Meldung
So, 25.10. 11:30 1009 - 1,0
So, 25.10. 11:20 1009 keine Meldung
So, 25.10. 11:10 1009 keine Meldung
So, 25.10. 11:00 1010 - 0,9
So, 25.10. 10:30 1010 - 0,6
So, 25.10. 10:00 1010 - 0,8
So, 25.10. 9:30 1010 - 0,9
So, 25.10. 9:00 1010 - 0,6
Ortszeit Schneehöhe (cm)
So, 25.10. 7:00 0
So, 25.10. 2:00 0
Sa, 24.10. 20:00 0
Sa, 24.10. 14:00 0
Sa, 24.10. 8:00 0
Sa, 24.10. 2:00 0
Fr, 23.10. 20:00 0
Fr, 23.10. 14:00 0
Ortszeit Schneehöhe (cm)
So, 25.10. 12:00 0
So, 25.10. 11:50 0
So, 25.10. 11:40 0
So, 25.10. 11:30 0
So, 25.10. 11:20 0
So, 25.10. 11:10 0
So, 25.10. 11:00 0
So, 25.10. 10:30 0
So, 25.10. 10:00 0
So, 25.10. 9:30 0
So, 25.10. 9:00 0
Link zu dieser Seite / Seite empfehlen

Das Wetter in ...